Time;durP1;ratioP1;P1;durP2;ratioP2;P2;SDS_P1;SDS_P2;PMS_P1;PMS_P2;Temp;Humidity;BMP_temperature;BMP_pressure;BME280_temperature;BME280_humidity;BME280_pressure;Samples;Min_cycle;Max_cycle;Signal;HPM_P1;HPM_P2
2022/02/17 00:01:52;;;;;;;0.10;0.10;;;;;;;13.95;65.36;99316.03;5033840;28;20060;-77
2022/02/17 00:04:18;;;;;;;0.15;0.15;;;;;;;14.00;65.08;99311.31;5035652;28;20035;-77
2022/02/17 00:06:44;;;;;;;0.75;0.75;;;;;;;14.01;65.21;99344.97;5035466;28;20487;-77
2022/02/17 00:09:10;;;;;;;0.10;0.10;;;;;;;13.84;65.73;99298.88;5036017;28;20068;-77
2022/02/17 00:11:41;;;;;;;0.10;0.10;;;;;;;13.99;65.25;99317.56;5034856;28;20052;-77
2022/02/17 00:14:07;;;;;;;0.65;0.65;;;;;;;13.84;65.37;99329.97;5036010;28;20070;-77
2022/02/17 00:16:33;;;;;;;0.10;0.10;;;;;;;13.86;65.22;99318.28;5035089;28;20080;-77
2022/02/17 00:19:02;;;;;;;0.10;0.10;;;;;;;13.83;64.64;99334.44;5035442;28;20476;-77
2022/02/17 00:21:29;;;;;;;0.10;0.10;;;;;;;13.89;64.67;99339.41;5035790;28;20103;-77
2022/02/17 00:23:55;;;;;;;0.10;0.10;;;;;;;13.69;64.27;99315.75;5035597;28;20053;-77
2022/02/17 00:26:21;;;;;;;0.10;0.10;;;;;;;13.99;64.16;99309.59;5035439;28;20108;-77
2022/02/17 00:28:48;;;;;;;0.10;0.10;;;;;;;13.90;64.06;99341.13;5035168;28;20049;-77
2022/02/17 00:31:14;;;;;;;0.35;0.35;;;;;;;13.71;65.46;99367.94;5034904;28;20116;-77
2022/02/17 00:33:40;;;;;;;0.10;0.10;;;;;;;13.68;66.06;99367.25;5035080;28;20029;-76
2022/02/17 00:36:07;;;;;;;0.00;0.00;;;;;;;13.19;67.60;99398.25;5034831;28;20028;-78
2022/02/17 00:38:33;;;;;;;0.10;0.10;;;;;;;12.67;68.45;99371.78;5033347;28;20091;-77
2022/02/17 00:40:59;;;;;;;0.20;0.20;;;;;;;12.65;68.54;99402.88;5034667;28;20530;-77
2022/02/17 00:43:25;;;;;;;0.20;0.20;;;;;;;12.52;67.58;99371.63;5034883;28;20033;-77
2022/02/17 00:45:52;;;;;;;0.13;0.13;;;;;;;12.26;67.14;99395.09;5036654;28;20038;-77
2022/02/17 00:48:18;;;;;;;1.35;1.08;;;;;;;12.41;66.19;99374.00;5035214;28;20033;-77
2022/02/17 00:50:44;;;;;;;0.20;0.20;;;;;;;12.24;67.49;99418.19;5034775;28;20112;-77
2022/02/17 00:53:10;;;;;;;0.10;0.10;;;;;;;12.08;67.90;99380.94;5034377;28;20365;-77
2022/02/17 00:55:37;;;;;;;0.10;0.10;;;;;;;12.08;67.36;99391.56;5034403;28;20528;-78
2022/02/17 00:58:04;;;;;;;0.10;0.10;;;;;;;11.92;67.15;99379.94;5035433;28;20056;-77
2022/02/17 01:00:31;;;;;;;0.10;0.10;;;;;;;12.02;66.42;99425.50;5034356;28;20033;-78
2022/02/17 01:02:57;;;;;;;0.10;0.10;;;;;;;12.12;67.58;99398.44;5034347;28;20033;-78
2022/02/17 01:05:23;;;;;;;0.08;0.08;;;;;;;12.12;68.06;99408.19;5034351;28;20030;-78
2022/02/17 01:07:49;;;;;;;0.10;0.10;;;;;;;12.24;68.39;99391.66;5034956;28;20056;-78
2022/02/17 01:10:15;;;;;;;0.32;0.32;;;;;;;12.29;68.35;99396.75;5034599;28;20029;-78
2022/02/17 01:12:41;;;;;;;0.00;0.00;;;;;;;12.21;68.77;99399.78;5033858;28;20029;-78
2022/02/17 01:15:08;;;;;;;0.08;0.08;;;;;;;12.26;68.35;99403.06;5034002;28;20037;-78
2022/02/17 01:17:34;;;;;;;0.10;0.10;;;;;;;12.06;67.49;99411.16;5034395;28;20087;-78
2022/02/17 01:20:00;;;;;;;0.00;0.00;;;;;;;12.23;66.76;99424.44;5034039;28;20026;-78
2022/02/17 01:22:27;;;;;;;0.20;0.20;;;;;;;12.26;66.59;99434.94;5034010;28;20448;-78
2022/02/17 01:24:53;;;;;;;4.68;3.35;;;;;;;12.30;66.58;99423.22;5032559;28;20448;-78
2022/02/17 01:27:19;;;;;;;9.65;1.98;;;;;;;12.25;66.28;99441.19;5033935;28;20499;-77
2022/02/17 01:29:48;;;;;;;0.10;0.10;;;;;;;12.15;66.96;99455.84;5033765;28;20017;-78
2022/02/17 01:32:14;;;;;;;0.28;0.28;;;;;;;12.21;66.03;99473.25;5034050;28;20071;-77
2022/02/17 01:34:41;;;;;;;1.55;1.42;;;;;;;12.28;65.35;99448.97;5034139;28;20052;-78
2022/02/17 01:37:07;;;;;;;0.82;0.82;;;;;;;12.17;65.78;99472.53;5033624;28;20208;-78
2022/02/17 01:39:34;;;;;;;0.10;0.10;;;;;;;12.30;65.68;99462.19;5033856;28;20022;-78
2022/02/17 01:42:00;;;;;;;0.10;0.10;;;;;;;12.26;64.70;99461.50;5033601;28;20029;-78
2022/02/17 01:44:27;;;;;;;2.40;2.20;;;;;;;12.27;64.54;99468.53;5033823;28;20034;-78
2022/02/17 01:46:53;;;;;;;1.10;1.10;;;;;;;12.28;64.10;99541.94;5033580;28;20029;-77
2022/02/17 01:49:19;;;;;;;0.10;0.10;;;;;;;12.32;62.85;99464.78;5034178;28;20033;-78
2022/02/17 01:51:45;;;;;;;2.53;1.17;;;;;;;12.23;62.42;99488.19;5033517;28;20124;-78
2022/02/17 01:54:12;;;;;;;0.10;0.10;;;;;;;12.34;61.33;99498.28;5033575;28;20064;-78
2022/02/17 01:56:41;;;;;;;0.10;0.10;;;;;;;12.13;60.82;99479.78;5033579;28;20025;-78
2022/02/17 01:59:09;;;;;;;0.10;0.10;;;;;;;12.29;59.57;99487.88;5033403;28;20407;-78
2022/02/17 02:01:36;;;;;;;0.10;0.10;;;;;;;12.23;59.04;99477.56;5033287;28;20037;-77
2022/02/17 02:04:04;;;;;;;7.57;1.38;;;;;;;12.14;58.96;99499.25;5033741;28;20030;-77
2022/02/17 02:06:30;;;;;;;0.10;0.10;;;;;;;11.93;58.71;99480.72;5033492;28;20439;-77
2022/02/17 02:08:57;;;;;;;0.10;0.10;;;;;;;12.01;58.88;99529.97;5033289;28;20030;-77
2022/02/17 02:11:24;;;;;;;0.10;0.10;;;;;;;12.23;58.76;99525.34;5033849;28;20037;-77
2022/02/17 02:13:51;;;;;;;0.20;0.20;;;;;;;12.12;60.05;99509.09;5033518;28;20099;-77
2022/02/17 02:16:17;;;;;;;0.10;0.10;;;;;;;12.03;60.95;99544.03;5033475;28;20032;-77
2022/02/17 02:18:43;;;;;;;0.10;0.10;;;;;;;12.10;60.69;99550.75;5033391;28;20030;-77
2022/02/17 02:21:09;;;;;;;0.55;0.55;;;;;;;12.13;60.22;99530.25;5033043;28;20037;-77
2022/02/17 02:23:37;;;;;;;0.22;0.22;;;;;;;12.03;60.26;99591.84;5033181;28;20073;-77
2022/02/17 02:26:04;;;;;;;0.10;0.10;;;;;;;12.08;60.11;99573.88;5033352;28;20095;-78
2022/02/17 02:28:33;;;;;;;0.10;0.10;;;;;;;12.17;59.64;99570.78;5033203;28;20113;-78
2022/02/17 02:30:59;;;;;;;0.43;0.43;;;;;;;12.18;59.05;99572.50;5033254;28;20057;-77
2022/02/17 02:33:26;;;;;;;1.05;1.05;;;;;;;12.21;59.12;99574.16;5033086;28;20034;-77
2022/02/17 02:35:54;;;;;;;0.20;0.20;;;;;;;12.02;58.17;99566.22;5033390;28;20486;-77
2022/02/17 02:38:20;;;;;;;0.10;0.10;;;;;;;12.10;57.28;99572.88;5033753;28;20402;-77
2022/02/17 02:40:47;;;;;;;0.77;0.77;;;;;;;12.00;57.05;99619.38;5033589;28;20473;-78
2022/02/17 02:43:14;;;;;;;0.10;0.10;;;;;;;11.86;56.99;99638.53;5033251;28;20420;-77
2022/02/17 02:45:43;;;;;;;0.10;0.10;;;;;;;11.94;56.16;99635.56;5033494;28;20037;-77
2022/02/17 02:48:12;;;;;;;0.10;0.10;;;;;;;12.00;55.25;99669.81;5033265;28;20036;-78
2022/02/17 02:50:38;;;;;;;0.10;0.10;;;;;;;12.05;54.36;99648.34;5032146;28;20049;-78
2022/02/17 02:53:05;;;;;;;0.10;0.10;;;;;;;12.08;54.76;99680.94;5033363;28;20030;-78
2022/02/17 02:55:32;;;;;;;0.20;0.20;;;;;;;11.93;54.57;99663.88;5032680;28;20087;-78
2022/02/17 02:57:58;;;;;;;0.10;0.10;;;;;;;11.88;54.80;99681.78;5032712;28;20468;-77
2022/02/17 03:00:25;;;;;;;0.10;0.10;;;;;;;11.95;54.40;99685.91;5032782;28;20037;-78
2022/02/17 03:02:51;;;;;;;0.10;0.10;;;;;;;11.94;53.09;99731.97;5033083;28;20030;-77
2022/02/17 03:05:17;;;;;;;0.15;0.15;;;;;;;11.91;52.58;99668.41;5033252;28;20038;-77
2022/02/17 03:07:44;;;;;;;4.28;1.20;;;;;;;12.07;52.29;99696.94;5033618;28;20033;-77
2022/02/17 03:10:10;;;;;;;29.83;1.10;;;;;;;11.96;51.97;99702.72;5033248;28;20068;-77
2022/02/17 03:12:37;;;;;;;0.10;0.10;;;;;;;12.12;52.15;99697.59;5035436;28;20533;-77
2022/02/17 03:15:04;;;;;;;0.10;0.10;;;;;;;11.94;52.29;99705.41;5036510;28;20377;-78
2022/02/17 03:17:30;;;;;;;2.53;1.35;;;;;;;11.95;51.80;99698.31;5036994;28;20029;-77
2022/02/17 03:19:56;;;;;;;0.10;0.10;;;;;;;11.83;51.50;99710.34;5036730;28;20065;-77
2022/02/17 03:22:23;;;;;;;0.10;0.10;;;;;;;11.87;51.74;99721.69;5036705;28;20060;-78
2022/02/17 03:24:49;;;;;;;0.20;0.20;;;;;;;12.01;52.30;99707.84;5036669;28;20036;-77
2022/02/17 03:27:16;;;;;;;0.10;0.10;;;;;;;12.01;53.12;99718.44;5036957;28;20388;-77
2022/02/17 03:29:42;;;;;;;0.20;0.20;;;;;;;11.91;53.43;99710.88;5036822;28;20029;-77
2022/02/17 03:32:08;;;;;;;0.10;0.10;;;;;;;11.86;53.17;99765.91;5036402;28;20029;-78
2022/02/17 03:34:35;;;;;;;1.95;1.85;;;;;;;11.92;53.67;99728.50;5036386;28;20125;-78
2022/02/17 03:37:01;;;;;;;0.10;0.10;;;;;;;11.88;53.87;99736.69;5036474;28;20060;-78
2022/02/17 03:39:27;;;;;;;0.40;0.40;;;;;;;11.86;54.12;99727.91;5036124;28;20380;-77
2022/02/17 03:41:53;;;;;;;2.28;2.17;;;;;;;11.69;54.96;99784.34;5036026;28;20089;-78
2022/02/17 03:44:19;;;;;;;0.00;0.00;;;;;;;11.86;55.31;99734.06;5036128;28;20428;-77
2022/02/17 03:46:46;;;;;;;0.30;0.30;;;;;;;11.63;55.99;99756.31;5036523;28;20079;-78
2022/02/17 03:49:12;;;;;;;0.10;0.10;;;;;;;11.62;56.44;99742.16;5036080;28;20029;-77
2022/02/17 03:51:38;;;;;;;0.10;0.10;;;;;;;11.83;55.88;99752.78;5036042;28;20025;-78
2022/02/17 03:54:04;;;;;;;0.10;0.10;;;;;;;11.84;56.26;99754.53;5036065;28;20030;-78
2022/02/17 03:56:31;;;;;;;0.45;0.45;;;;;;;11.75;56.75;99792.06;5036121;28;20025;-78
2022/02/17 03:59:04;;;;;;;0.10;0.10;;;;;;;11.88;56.38;99761.41;5036009;28;20064;-77
2022/02/17 04:01:42;;;;;;;0.08;0.08;;;;;;;11.85;56.35;99784.56;5035326;28;20068;-77
2022/02/17 04:04:15;;;;;;;2.35;1.20;;;;;;;11.86;56.45;99781.00;5036029;28;20087;-77
2022/02/17 04:06:49;;;;;;;0.20;0.20;;;;;;;11.60;56.75;99799.75;5035679;28;20045;-77
2022/02/17 04:09:15;;;;;;;0.10;0.10;;;;;;;11.73;56.51;99804.53;5035487;28;20100;-78
2022/02/17 04:11:41;;;;;;;0.90;0.90;;;;;;;11.65;56.19;99832.25;5035790;28;20124;-77
2022/02/17 04:14:07;;;;;;;0.10;0.10;;;;;;;11.73;56.61;99817.81;5035626;28;20124;-77
2022/02/17 04:16:34;;;;;;;22.48;2.15;;;;;;;11.70;56.46;99809.97;5035275;28;20457;-78
2022/02/17 04:19:00;;;;;;;0.13;0.13;;;;;;;11.65;56.01;99805.72;5035604;28;20041;-78
2022/02/17 04:21:26;;;;;;;0.57;0.57;;;;;;;11.73;55.73;99825.78;5035053;28;20046;-77
2022/02/17 04:23:52;;;;;;;0.35;0.35;;;;;;;11.74;54.91;99833.66;5035335;28;20445;-78
2022/02/17 04:26:21;;;;;;;0.10;0.10;;;;;;;11.74;55.01;99846.03;5035242;28;20479;-78
2022/02/17 04:28:49;;;;;;;0.10;0.10;;;;;;;11.86;54.88;99866.78;5035579;28;20488;-77
2022/02/17 04:31:16;;;;;;;0.10;0.10;;;;;;;11.87;54.53;99865.84;5034663;28;20436;-77
2022/02/17 04:33:46;;;;;;;0.10;0.10;;;;;;;11.74;54.99;99891.16;5035189;28;20026;-77
2022/02/17 04:36:12;;;;;;;0.10;0.10;;;;;;;11.77;55.58;99891.06;5035366;28;20037;-77
2022/02/17 04:38:38;;;;;;;0.10;0.10;;;;;;;11.60;56.53;99889.94;5035458;28;20033;-78
2022/02/17 04:43:50;;;;;;;26.58;5.00;;;;;;;11.63;57.59;99896.91;5034551;28;20381;-78
2022/02/17 04:46:17;;;;;;;0.50;0.50;;;;;;;11.74;57.57;99899.13;5035274;28;20033;-77
2022/02/17 04:48:43;;;;;;;0.60;0.60;;;;;;;11.67;57.85;99897.66;5035431;28;20026;-77
2022/02/17 04:51:10;;;;;;;0.10;0.10;;;;;;;11.73;58.07;99906.22;5035074;28;20057;-78
2022/02/17 04:53:36;;;;;;;0.10;0.10;;;;;;;11.61;57.88;99936.78;5034736;28;20033;-78
2022/02/17 04:56:03;;;;;;;0.10;0.10;;;;;;;11.69;57.90;99907.28;5034893;28;20136;-78
2022/02/17 04:58:29;;;;;;;1.65;1.55;;;;;;;11.63;57.66;99924.31;5034938;28;20411;-77
2022/02/17 05:00:55;;;;;;;0.00;0.00;;;;;;;11.72;57.42;99944.31;5034425;28;20025;-78
2022/02/17 05:03:24;;;;;;;0.10;0.10;;;;;;;11.82;56.95;99928.88;5034854;28;20033;-78
2022/02/17 05:05:51;;;;;;;0.20;0.20;;;;;;;11.89;56.31;99948.97;5034391;28;20033;-78
2022/02/17 05:08:18;;;;;;;9.80;1.10;;;;;;;11.93;55.50;99937.28;5034718;28;20029;-78
2022/02/17 05:10:45;;;;;;;0.98;0.90;;;;;;;11.91;55.82;99931.19;5034366;28;20028;-78
2022/02/17 05:13:11;;;;;;;0.30;0.30;;;;;;;11.94;55.87;99965.56;5035001;28;20373;-77
2022/02/17 05:15:38;;;;;;;0.15;0.15;;;;;;;12.09;55.16;99956.16;5034747;28;20025;-78
2022/02/17 05:18:05;;;;;;;0.10;0.10;;;;;;;11.90;54.36;99974.56;5032655;28;20535;-78
2022/02/17 05:20:32;;;;;;;13.05;1.27;;;;;;;11.96;54.08;99989.41;5034437;28;20037;-77
2022/02/17 05:22:58;;;;;;;0.90;0.90;;;;;;;11.93;54.86;100069.16;5034445;28;20072;-79
2022/02/17 05:25:24;;;;;;;11.35;1.45;;;;;;;12.06;54.75;100000.53;5034625;28;20060;-78
2022/02/17 05:27:51;;;;;;;3.70;3.28;;;;;;;12.09;54.57;100027.00;5034518;28;20449;-78
2022/02/17 05:30:17;;;;;;;1.75;1.65;;;;;;;12.08;53.83;100030.56;5034223;28;20540;-78
2022/02/17 05:32:44;;;;;;;0.20;0.20;;;;;;;12.03;53.18;100035.19;5034325;28;20057;-78
2022/02/17 05:35:11;;;;;;;0.68;0.50;;;;;;;12.24;52.96;100012.22;5033629;28;20376;-77
2022/02/17 05:37:39;;;;;;;0.10;0.10;;;;;;;12.08;52.28;100057.13;5034200;28;20026;-78
2022/02/17 05:42:36;;;;;;;0.35;0.35;;;;;;;12.04;51.70;100040.44;5033169;28;20080;-80
2022/02/17 05:45:03;;;;;;;0.10;0.10;;;;;;;12.20;52.09;100039.81;5034342;28;20087;-81
2022/02/17 05:47:29;;;;;;;0.10;0.10;;;;;;;12.25;52.57;100075.91;5034299;28;20041;-82
2022/02/17 05:49:56;;;;;;;0.10;0.10;;;;;;;12.09;53.20;100061.50;5033982;28;20112;-82
2022/02/17 05:52:22;;;;;;;0.10;0.10;;;;;;;11.95;54.35;100076.13;5033468;28;20477;-82
2022/02/17 05:54:48;;;;;;;0.10;0.10;;;;;;;11.95;53.67;100073.47;5033666;28;20061;-79
2022/02/17 05:57:14;;;;;;;0.10;0.10;;;;;;;11.74;53.66;100101.69;5034246;28;20116;-77
2022/02/17 05:59:43;;;;;;;0.20;0.20;;;;;;;11.79;53.56;100075.84;5033596;28;20048;-80
2022/02/17 06:02:09;;;;;;;1.17;1.17;;;;;;;11.70;54.18;100099.19;5034312;28;20065;-81
2022/02/17 06:04:35;;;;;;;0.65;0.65;;;;;;;11.84;52.94;100085.41;5034134;28;20030;-81
2022/02/17 06:07:01;;;;;;;0.10;0.10;;;;;;;11.58;53.21;100095.22;5033715;28;20356;-80
2022/02/17 06:09:30;;;;;;;0.55;0.55;;;;;;;11.48;52.57;100115.91;5033538;28;20118;-81
2022/02/17 06:11:56;;;;;;;0.25;0.25;;;;;;;11.44;52.21;100130.16;5033530;28;20029;-81
2022/02/17 06:14:22;;;;;;;0.10;0.10;;;;;;;11.52;51.65;100119.31;5033573;28;20034;-80
2022/02/17 06:16:48;;;;;;;0.10;0.10;;;;;;;11.64;51.67;100132.16;5034119;28;20026;-78
2022/02/17 06:19:15;;;;;;;0.10;0.10;;;;;;;11.51;51.87;100113.13;5034617;28;20026;-80
2022/02/17 06:21:44;;;;;;;0.10;0.10;;;;;;;11.69;51.80;100124.00;5033868;28;20119;-80
2022/02/17 06:24:10;;;;;;;1.50;1.17;;;;;;;11.55;52.00;100138.66;5033794;28;20017;-80
2022/02/17 06:26:36;;;;;;;0.08;0.08;;;;;;;11.63;51.77;100130.41;5033988;28;20037;-81
2022/02/17 06:29:02;;;;;;;0.10;0.10;;;;;;;11.43;51.70;100155.00;5034247;28;20084;-82
2022/02/17 06:31:28;;;;;;;0.10;0.10;;;;;;;11.53;51.29;100161.69;5031987;28;20041;-83
2022/02/17 06:33:54;;;;;;;1.35;1.35;;;;;;;11.37;51.21;100184.38;5032013;28;20029;-80
2022/02/17 06:36:20;;;;;;;0.10;0.10;;;;;;;11.44;51.51;100178.81;5012201;28;20042;-82
2022/02/17 06:38:47;;;;;;;0.40;0.40;;;;;;;11.50;51.27;100225.47;5033339;28;20029;-81
2022/02/17 06:41:17;;;;;;;0.22;0.22;;;;;;;11.29;51.29;100196.09;5033108;28;20060;-78
2022/02/17 06:43:44;;;;;;;0.10;0.10;;;;;;;11.45;51.64;100216.78;5032867;28;20176;-78
2022/02/17 06:46:10;;;;;;;0.10;0.10;;;;;;;11.17;51.05;100215.06;5032242;28;20072;-78
2022/02/17 06:48:36;;;;;;;0.10;0.10;;;;;;;11.27;50.97;100212.97;5037123;28;20030;-82
2022/02/17 06:51:02;;;;;;;0.10;0.10;;;;;;;11.29;50.78;100241.19;5036562;28;20037;-83
2022/02/17 06:53:28;;;;;;;0.10;0.10;;;;;;;11.31;50.66;100231.41;5037106;28;20042;-81
2022/02/17 06:55:55;;;;;;;1.75;0.60;;;;;;;11.44;50.20;100226.56;5035337;28;20412;-78
2022/02/17 06:58:21;;;;;;;1.85;1.15;;;;;;;11.41;50.45;100225.78;5036054;28;20057;-82
2022/02/17 07:00:48;;;;;;;0.10;0.10;;;;;;;11.33;49.85;100240.16;5036760;28;20029;-82
2022/02/17 07:03:15;;;;;;;0.10;0.10;;;;;;;11.25;49.54;100236.91;5036828;28;20076;-83
2022/02/17 07:05:41;;;;;;;0.10;0.10;;;;;;;11.23;49.41;100275.88;5036371;28;20071;-84
2022/02/17 07:08:08;;;;;;;0.10;0.10;;;;;;;11.09;49.30;100257.75;5036236;28;20033;-84
2022/02/17 07:11:05;;;;;;;0.10;0.10;;;;;;;11.16;49.11;100247.78;5036774;28;20362;-85
2022/02/17 07:13:21;;;;;;;0.10;0.10;;;;;;;11.31;48.61;100287.09;5035467;28;20042;-82
2022/02/17 07:15:51;;;;;;;0.10;0.10;;;;;;;11.39;48.84;100259.44;5032179;28;20025;-84
2022/02/17 07:18:19;;;;;;;0.10;0.10;;;;;;;11.32;49.40;100307.38;5029176;28;20025;-83
2022/02/17 07:20:46;;;;;;;0.10;0.10;;;;;;;11.12;49.93;100301.84;5030880;28;20040;-84
2022/02/17 07:23:14;;;;;;;0.10;0.10;;;;;;;11.16;50.34;100272.53;5035421;28;20431;-82
2022/02/17 07:25:42;;;;;;;0.20;0.20;;;;;;;11.16;50.15;100291.09;5034242;28;20539;-84
2022/02/17 07:28:09;;;;;;;0.10;0.10;;;;;;;11.12;50.10;100320.41;5034344;28;20034;-83
2022/02/17 07:30:36;;;;;;;0.10;0.10;;;;;;;11.11;50.00;100323.97;5034823;28;20112;-84
2022/02/17 07:33:04;;;;;;;9.52;1.10;;;;;;;11.16;50.35;100319.38;5034090;28;20388;-83
2022/02/17 07:35:31;;;;;;;0.10;0.10;;;;;;;11.09;50.58;100331.09;5028268;28;20030;-82
2022/02/17 07:37:57;;;;;;;0.20;0.20;;;;;;;11.12;50.60;100315.09;5027458;28;20053;-83
2022/02/17 07:40:24;;;;;;;0.05;0.05;;;;;;;10.77;50.69;100331.16;5033844;28;20025;-83
2022/02/17 07:42:50;;;;;;;0.10;0.10;;;;;;;10.93;50.98;100347.47;5028288;28;20034;-84
2022/02/17 07:45:17;;;;;;;0.40;0.40;;;;;;;10.76;50.65;100339.16;5016165;28;20185;-82
2022/02/17 07:47:46;;;;;;;0.10;0.10;;;;;;;10.93;50.42;100363.38;5031566;28;20116;-83
2022/02/17 07:50:13;;;;;;;0.52;0.52;;;;;;;11.00;50.79;100333.13;5031454;28;20021;-84
2022/02/17 07:52:39;;;;;;;0.10;0.10;;;;;;;11.02;50.47;100342.81;5033501;28;20119;-82
2022/02/17 07:55:06;;;;;;;0.10;0.10;;;;;;;11.03;50.15;100389.59;5034155;28;20059;-83
2022/02/17 07:57:32;;;;;;;0.10;0.10;;;;;;;11.13;49.78;100348.66;5033033;28;20037;-83
2022/02/17 07:59:59;;;;;;;0.10;0.10;;;;;;;10.99;49.81;100352.59;5034116;28;20040;-84
2022/02/17 08:02:26;;;;;;;0.30;0.30;;;;;;;10.97;50.89;100354.41;5033228;28;20385;-80
2022/02/17 08:04:52;;;;;;;0.10;0.10;;;;;;;11.06;50.35;100378.91;5027211;28;20034;-80
2022/02/17 08:07:18;;;;;;;0.10;0.10;;;;;;;11.16;51.31;100391.88;5030646;28;20022;-82
2022/02/17 08:09:44;;;;;;;0.10;0.10;;;;;;;10.96;50.88;100391.56;5033615;28;20112;-81
2022/02/17 08:12:10;;;;;;;0.10;0.10;;;;;;;10.89;50.35;100404.13;5033466;28;20384;-77
2022/02/17 08:14:36;;;;;;;0.20;0.20;;;;;;;11.19;49.42;100412.13;5033274;28;20022;-79
2022/02/17 08:17:03;;;;;;;0.10;0.10;;;;;;;10.90;48.67;100420.91;5030333;28;20033;-81
2022/02/17 08:19:30;;;;;;;0.13;0.13;;;;;;;11.05;48.10;100424.91;5023920;28;20037;-83
2022/02/17 08:21:56;;;;;;;0.10;0.10;;;;;;;11.07;47.48;100408.03;5026910;28;20053;-82
2022/02/17 08:24:22;;;;;;;0.10;0.10;;;;;;;10.88;46.81;100431.56;5013806;28;20022;-80
2022/02/17 08:26:48;;;;;;;0.10;0.10;;;;;;;10.95;46.44;100429.59;5014043;28;20751;-81
2022/02/17 08:29:14;;;;;;;0.10;0.10;;;;;;;11.13;46.06;100439.66;5027654;28;20445;-82
2022/02/17 08:31:42;;;;;;;0.10;0.10;;;;;;;11.19;46.14;100458.97;5013900;28;20481;-83
2022/02/17 08:34:08;;;;;;;0.10;0.10;;;;;;;10.91;45.93;100439.41;5013428;28;20030;-81
2022/02/17 08:36:35;;;;;;;0.10;0.10;;;;;;;11.32;45.67;100455.91;5030370;28;20029;-83
2022/02/17 08:39:02;;;;;;;0.15;0.15;;;;;;;11.10;45.31;100454.78;5032797;28;20024;-84
2022/02/17 08:41:29;;;;;;;0.10;0.10;;;;;;;11.10;45.06;100468.94;5067857;22;20044;-76
2022/02/17 08:43:55;;;;;;;0.10;0.10;;;;;;;11.20;45.21;100468.66;5066879;28;20083;-76
2022/02/17 08:46:21;;;;;;;0.10;0.10;;;;;;;11.21;44.40;100479.22;5053240;28;20025;-76
2022/02/17 08:48:48;;;;;;;0.10;0.10;;;;;;;11.29;44.60;100481.66;5052679;28;20033;-77
2022/02/17 08:51:17;;;;;;;0.50;0.50;;;;;;;11.46;45.11;100465.25;5052345;28;20060;-77
2022/02/17 08:53:44;;;;;;;0.10;0.10;;;;;;;11.52;44.84;100473.03;5052259;28;20032;-77
2022/02/17 08:56:10;;;;;;;0.10;0.10;;;;;;;11.51;45.25;100471.28;5050561;28;20032;-77
2022/02/17 08:58:36;;;;;;;0.10;0.10;;;;;;;11.31;45.50;100501.03;5044617;28;20035;-77
2022/02/17 09:01:02;;;;;;;0.10;0.10;;;;;;;11.52;45.80;100504.88;5047901;28;20032;-76
2022/02/17 09:03:29;;;;;;;0.10;0.10;;;;;;;11.36;46.17;100477.91;5038492;28;20385;-77
2022/02/17 09:05:55;;;;;;;0.20;0.20;;;;;;;11.37;46.30;100500.88;5047652;28;20091;-76
2022/02/17 09:08:21;;;;;;;0.10;0.10;;;;;;;11.56;46.22;100501.19;5042396;28;20028;-78
2022/02/17 09:10:47;;;;;;;0.00;0.00;;;;;;;11.40;46.43;100510.53;5047391;28;20121;-78
2022/02/17 09:13:15;;;;;;;0.10;0.10;;;;;;;11.64;46.00;100515.13;5047733;28;20100;-77
2022/02/17 09:15:41;;;;;;;0.17;0.17;;;;;;;11.42;46.50;100544.03;5045968;28;20100;-78
2022/02/17 09:18:07;;;;;;;0.10;0.10;;;;;;;11.76;46.65;100523.63;5051389;28;20025;-78
2022/02/17 09:20:36;;;;;;;0.10;0.10;;;;;;;11.75;46.90;100525.41;5051306;28;20403;-77
2022/02/17 09:23:03;;;;;;;0.10;0.10;;;;;;;11.76;47.19;100534.22;5051559;28;20021;-78
2022/02/17 09:25:29;;;;;;;0.10;0.10;;;;;;;11.75;47.17;100561.69;5053206;28;20036;-79
2022/02/17 09:27:55;;;;;;;0.10;0.10;;;;;;;11.78;47.86;100537.72;5051325;28;20082;-79
2022/02/17 09:30:21;;;;;;;0.10;0.10;;;;;;;11.59;47.85;100555.94;5051166;28;20438;-79
2022/02/17 09:32:47;;;;;;;0.10;0.10;;;;;;;11.77;46.72;100589.06;5050931;28;20021;-78
2022/02/17 09:35:13;;;;;;;0.10;0.10;;;;;;;11.67;45.95;100577.84;5051048;28;20488;-79
2022/02/17 09:37:39;;;;;;;0.10;0.10;;;;;;;11.68;45.68;100584.03;5055408;28;20104;-77
2022/02/17 09:40:06;;;;;;;0.10;0.10;;;;;;;11.67;44.33;100591.13;5052016;28;20029;-78
2022/02/17 09:42:37;;;;;;;0.10;0.10;;;;;;;11.92;44.44;100583.28;5051940;28;20044;-77
2022/02/17 09:45:08;;;;;;;0.10;0.10;;;;;;;11.81;44.23;100580.09;5051149;28;20044;-78
2022/02/17 09:47:40;;;;;;;0.10;0.10;;;;;;;11.75;44.04;100590.88;5049631;28;20040;-77
2022/02/17 09:50:09;;;;;;;0.10;0.10;;;;;;;11.87;44.06;100568.44;5051563;28;20375;-77
2022/02/17 09:52:37;;;;;;;0.10;0.10;;;;;;;11.82;44.00;100619.88;5051379;28;20029;-77
2022/02/17 09:55:06;;;;;;;0.10;0.10;;;;;;;11.74;44.40;100607.72;5052150;28;20057;-78
2022/02/17 09:57:32;;;;;;;0.22;0.22;;;;;;;11.89;43.99;100620.56;5051875;28;20029;-78
2022/02/17 09:59:59;;;;;;;0.10;0.10;;;;;;;11.79;44.96;100604.03;5051929;28;20024;-77
2022/02/17 10:02:27;;;;;;;0.10;0.10;;;;;;;11.87;44.91;100609.09;5051779;28;20033;-78
2022/02/17 10:04:55;;;;;;;0.10;0.10;;;;;;;12.09;44.19;100603.22;5051552;28;20053;-77
2022/02/17 10:07:37;;;;;;;0.10;0.10;;;;;;;12.17;44.05;100633.03;5040340;28;20040;-78
2022/02/17 10:10:09;;;;;;;0.20;0.20;;;;;;;12.30;44.24;100609.66;5039936;28;20025;-77
2022/02/17 10:12:59;;;;;;;0.10;0.10;;;;;;;12.21;44.64;100623.22;5040631;28;20498;-77
2022/02/17 10:15:35;;;;;;;8.05;0.75;;;;;;;12.33;44.04;100620.19;5050324;28;20056;-77
2022/02/17 10:18:13;;;;;;;0.10;0.10;;;;;;;11.95;44.77;100646.94;5051035;28;20059;-77
2022/02/17 10:21:05;;;;;;;0.10;0.10;;;;;;;12.14;44.46;100663.22;5050137;28;20377;-78
2022/02/17 10:23:39;;;;;;;0.68;0.68;;;;;;;12.21;44.61;100658.63;5052534;28;20090;-78
2022/02/17 10:26:10;;;;;;;0.10;0.10;;;;;;;12.30;44.45;100653.03;5055549;28;20033;-78
2022/02/17 10:28:42;;;;;;;1.65;1.55;;;;;;;12.20;44.78;100755.16;5051509;28;20036;-78
2022/02/17 10:31:20;;;;;;;0.10;0.10;;;;;;;12.17;43.87;100695.94;5054383;28;20112;-79
2022/02/17 10:33:47;;;;;;;0.80;0.55;;;;;;;12.17;44.46;100654.28;5054298;28;20029;-78
2022/02/17 10:36:14;;;;;;;0.10;0.10;;;;;;;12.30;44.25;100642.41;5056025;28;20548;-78
2022/02/17 10:38:42;;;;;;;0.10;0.10;;;;;;;12.32;44.35;100670.72;5054502;28;20029;-78
2022/02/17 10:41:09;;;;;;;0.10;0.10;;;;;;;12.24;44.46;100663.81;5049500;28;20051;-79
2022/02/17 10:43:36;;;;;;;0.40;0.40;;;;;;;12.32;44.49;100681.34;5050972;28;20040;-79
2022/02/17 10:46:06;;;;;;;0.13;0.13;;;;;;;12.43;44.40;100664.13;5053850;28;20468;-78
2022/02/17 10:48:33;;;;;;;0.10;0.10;;;;;;;12.21;44.38;100686.94;5046084;28;20095;-80
2022/02/17 10:54:04;;;;;;;0.15;0.15;;;;;;;12.42;44.00;100691.66;5082622;27;20408;-78
2022/02/17 10:56:31;;;;;;;0.17;0.17;;;;;;;12.66;43.78;100673.22;5068860;28;20072;-78
2022/02/17 11:01:59;;;;;;;0.10;0.10;;;;;;;12.60;44.42;100694.66;5066892;28;20036;-79
2022/02/17 11:04:26;;;;;;;0.45;0.45;;;;;;;12.49;44.23;100732.19;5062491;28;20076;-79
2022/02/17 11:06:52;;;;;;;0.40;0.40;;;;;;;12.34;45.23;100698.97;5063450;28;20017;-77
2022/02/17 11:09:19;;;;;;;0.10;0.10;;;;;;;12.55;44.79;100726.69;5070550;28;20540;-78
2022/02/17 11:11:54;;;;;;;0.38;0.38;;;;;;;12.59;44.17;100679.63;5068637;28;20029;-78
2022/02/17 11:14:40;;;;;;;0.10;0.10;;;;;;;12.73;44.38;100765.13;5068352;28;20035;-78
2022/02/17 11:17:08;;;;;;;0.10;0.10;;;;;;;12.69;44.70;100720.09;5066111;28;20039;-79
2022/02/17 11:19:36;;;;;;;0.28;0.28;;;;;;;12.78;44.30;100723.34;5064708;28;20113;-76
2022/02/17 11:22:04;;;;;;;0.10;0.10;;;;;;;12.56;44.09;100776.28;5058533;28;20601;-78
2022/02/17 11:24:46;;;;;;;0.90;0.90;;;;;;;12.77;44.10;100748.16;5051397;28;20037;-80
2022/02/17 11:27:12;;;;;;;0.10;0.10;;;;;;;12.87;43.13;100730.16;5048405;28;20037;-79
2022/02/17 11:29:41;;;;;;;0.10;0.10;;;;;;;12.70;43.81;100751.94;5068037;28;20025;-79
2022/02/17 11:32:12;;;;;;;0.10;0.10;;;;;;;12.70;44.30;100735.97;5068265;28;20111;-79
2022/02/17 11:34:53;;;;;;;0.10;0.10;;;;;;;12.75;44.98;100750.00;5068695;28;20028;-79
2022/02/17 11:37:41;;;;;;;0.15;0.15;;;;;;;12.70;44.20;100735.13;5068576;28;20361;-80
2022/02/17 11:40:15;;;;;;;0.10;0.10;;;;;;;12.75;43.80;100734.03;5068440;28;20028;-79
2022/02/17 11:42:45;;;;;;;0.10;0.10;;;;;;;12.66;43.46;100791.94;5057618;28;20044;-78